createdAt,value
2022-10-14T00:01:07.138Z,92.63
2022-10-14T00:03:35.365Z,92.43
2022-10-14T00:06:14.178Z,103.15
2022-10-14T00:08:42.061Z,101.47
2022-10-14T00:11:12.120Z,91.35
2022-10-14T00:13:39.662Z,91.20
2022-10-14T00:16:07.747Z,87.20
2022-10-14T00:18:34.506Z,81.05
2022-10-14T00:21:03.252Z,78.57
2022-10-14T00:23:30.452Z,94.03
2022-10-14T00:25:57.276Z,87.55
2022-10-14T00:28:24.180Z,95.63
2022-10-14T00:31:01.585Z,97.68
2022-10-14T00:33:29.147Z,106.63
2022-10-14T00:35:58.108Z,95.20
2022-10-14T00:38:25.769Z,99.00
2022-10-14T00:40:53.468Z,98.03
2022-10-14T00:43:22.730Z,101.20
2022-10-14T00:45:49.535Z,108.95
2022-10-14T00:48:18.001Z,95.80
2022-10-14T00:50:47.154Z,101.65
2022-10-14T00:53:14.422Z,95.20
2022-10-14T00:55:42.991Z,90.85
2022-10-14T00:58:10.632Z,88.63
2022-10-14T01:00:38.216Z,92.78
2022-10-14T01:03:19.315Z,82.35
2022-10-14T01:06:17.623Z,88.23
2022-10-14T01:09:17.116Z,89.05
2022-10-14T01:12:37.391Z,86.90
2022-10-14T01:15:00.517Z,87.30
2022-10-14T01:17:44.165Z,95.13
2022-10-14T01:20:26.235Z,96.88
2022-10-14T01:26:06.539Z,94.15
2022-10-14T01:28:54.943Z,106.68
2022-10-14T01:31:30.303Z,104.82
2022-10-14T01:33:59.945Z,93.85
2022-10-14T01:36:33.024Z,99.05
2022-10-14T01:39:15.131Z,101.10
2022-10-14T01:42:11.296Z,94.18
2022-10-14T01:44:42.539Z,101.70
2022-10-14T01:47:12.177Z,106.55
2022-10-14T01:49:44.924Z,97.68
2022-10-14T01:52:20.414Z,98.85
2022-10-14T01:54:50.239Z,90.55
2022-10-14T01:57:25.677Z,94.15
2022-10-14T01:59:53.783Z,97.68
2022-10-14T02:02:24.615Z,98.05
2022-10-14T02:04:52.234Z,106.57
2022-10-14T02:07:43.871Z,104.80
2022-10-14T02:10:40.811Z,88.93
2022-10-14T02:13:07.529Z,91.43
2022-10-14T02:16:01.732Z,94.68
2022-10-14T02:18:41.394Z,100.30
2022-10-14T02:21:12.424Z,89.57
2022-10-14T02:23:46.308Z,106.55
2022-10-14T02:26:13.843Z,118.38
2022-10-14T02:28:43.038Z,96.20
2022-10-14T02:31:14.680Z,100.22
2022-10-14T02:33:45.235Z,97.45
2022-10-14T02:36:15.038Z,95.47
2022-10-14T02:38:43.062Z,96.03
2022-10-14T02:41:15.404Z,104.32
2022-10-14T02:43:42.187Z,106.72
2022-10-14T02:46:10.136Z,93.47
2022-10-14T02:48:37.020Z,90.78
2022-10-14T02:51:04.225Z,100.07
2022-10-14T02:53:31.052Z,93.45
2022-10-14T02:55:57.869Z,96.75
2022-10-14T02:58:24.664Z,91.10
2022-10-14T03:00:51.609Z,99.03
2022-10-14T03:03:18.471Z,92.43
2022-10-14T03:05:45.325Z,87.80
2022-10-14T03:08:12.097Z,90.95
2022-10-14T03:10:38.867Z,111.03
2022-10-14T03:13:05.617Z,94.03
2022-10-14T03:15:32.388Z,95.93
2022-10-14T03:17:59.111Z,92.78
2022-10-14T03:20:25.963Z,89.07
2022-10-14T03:22:52.729Z,88.80
2022-10-14T03:25:19.540Z,100.40
2022-10-14T03:27:46.388Z,93.57
2022-10-14T03:30:13.217Z,104.53
2022-10-14T03:32:39.972Z,114.28
2022-10-14T03:35:07.495Z,129.27
2022-10-14T03:37:34.313Z,125.68
2022-10-14T03:40:01.069Z,130.73
2022-10-14T03:42:27.843Z,136.23
2022-10-14T03:44:54.596Z,124.53
2022-10-14T03:47:21.557Z,129.77
2022-10-14T03:49:48.340Z,134.35
2022-10-14T03:52:15.251Z,118.60
2022-10-14T03:54:42.097Z,157.07
2022-10-14T03:57:08.997Z,119.80
2022-10-14T03:59:35.771Z,117.10
2022-10-14T04:02:02.703Z,164.90
2022-10-14T04:04:29.526Z,309.10
2022-10-14T04:06:56.283Z,181.18
2022-10-14T04:09:23.088Z,193.57
2022-10-14T04:11:50.056Z,160.10
2022-10-14T04:14:16.868Z,117.43
2022-10-14T04:16:48.906Z,151.18
2022-10-14T04:19:16.738Z,133.38
2022-10-14T04:21:43.489Z,122.28
2022-10-14T04:24:10.388Z,350.50
2022-10-14T04:26:37.147Z,290.52
2022-10-14T04:29:04.091Z,218.38
2022-10-14T04:31:31.116Z,113.10
2022-10-14T04:33:57.992Z,153.35
2022-10-14T04:36:24.763Z,171.27
2022-10-14T04:38:51.493Z,199.70
2022-10-14T04:41:18.272Z,125.97
2022-10-14T04:43:45.026Z,115.72
2022-10-14T04:46:11.802Z,176.10
2022-10-14T04:48:38.620Z,162.88
2022-10-14T04:51:05.571Z,171.40
2022-10-14T04:53:32.454Z,128.20
2022-10-14T04:55:59.196Z,128.57
2022-10-14T04:58:25.920Z,206.98
2022-10-14T05:00:55.195Z,146.13
2022-10-14T05:03:22.096Z,130.77
2022-10-14T05:05:50.869Z,127.88
2022-10-14T05:08:17.979Z,141.68
2022-10-14T05:10:44.832Z,114.70
2022-10-14T05:13:11.601Z,126.38
2022-10-14T05:15:38.388Z,111.20
2022-10-14T05:18:05.270Z,110.50
2022-10-14T05:20:32.037Z,135.80
2022-10-14T05:22:58.776Z,123.93
2022-10-14T05:25:25.681Z,124.82
2022-10-14T05:27:53.735Z,118.30
2022-10-14T05:30:20.691Z,142.95
2022-10-14T05:32:47.440Z,144.77
2022-10-14T05:35:14.343Z,118.18
2022-10-14T05:37:41.411Z,127.28
2022-10-14T05:40:08.995Z,109.75
2022-10-14T05:42:35.811Z,117.25
2022-10-14T05:45:02.613Z,147.43
2022-10-14T05:47:29.368Z,124.53
2022-10-14T05:49:56.185Z,111.78
2022-10-14T05:52:24.082Z,124.60
2022-10-14T05:54:51.091Z,119.32
2022-10-14T05:57:17.848Z,137.45
2022-10-14T05:59:44.582Z,172.15
2022-10-14T06:02:11.508Z,137.52
2022-10-14T06:04:41.106Z,153.60
2022-10-14T06:07:10.459Z,161.38
2022-10-14T06:09:38.231Z,122.05
2022-10-14T06:12:05.646Z,123.20
2022-10-14T06:14:32.455Z,149.75
2022-10-14T06:16:59.228Z,142.27
2022-10-14T06:19:25.990Z,121.80
2022-10-14T06:21:52.853Z,121.75
2022-10-14T06:24:19.575Z,118.47
2022-10-14T06:26:48.364Z,113.43
2022-10-14T06:29:16.220Z,103.70
2022-10-14T06:31:43.260Z,101.28
2022-10-14T06:34:10.079Z,109.75
2022-10-14T06:36:37.242Z,103.95
2022-10-14T06:39:05.294Z,101.22
2022-10-14T06:41:32.943Z,94.40
2022-10-14T06:43:59.919Z,85.97
2022-10-14T06:46:26.829Z,79.68
2022-10-14T06:48:53.592Z,88.05
2022-10-14T06:51:20.435Z,93.65
2022-10-14T06:53:47.254Z,97.05
2022-10-14T06:56:14.213Z,87.53
2022-10-14T06:58:40.966Z,82.70
2022-10-14T07:01:08.771Z,85.47
2022-10-14T07:03:39.468Z,85.93
2022-10-14T07:06:07.864Z,89.75
2022-10-14T07:08:35.212Z,94.10
2022-10-14T07:11:02.136Z,80.50
2022-10-14T07:13:29.081Z,76.10
2022-10-14T07:15:58.839Z,82.90
2022-10-14T07:18:25.709Z,86.82
2022-10-14T07:20:52.564Z,93.78
2022-10-14T07:23:19.512Z,94.18
2022-10-14T07:25:46.402Z,99.85
2022-10-14T07:28:13.150Z,101.47
2022-10-14T07:30:40.048Z,110.72
2022-10-14T07:33:06.801Z,114.35
2022-10-14T07:35:33.875Z,107.82
2022-10-14T07:38:00.745Z,113.28
2022-10-14T07:40:27.884Z,119.28
2022-10-14T07:42:54.718Z,111.13
2022-10-14T07:45:21.570Z,121.85
2022-10-14T07:47:50.025Z,121.18
2022-10-14T07:50:17.363Z,136.25
2022-10-14T07:52:44.233Z,127.30
2022-10-14T07:55:11.182Z,130.60
2022-10-14T07:57:37.956Z,130.00
2022-10-14T08:00:05.451Z,128.25
2022-10-14T08:02:32.204Z,131.15
2022-10-14T08:05:18.820Z,124.65
2022-10-14T08:07:45.696Z,129.63
2022-10-14T08:10:12.568Z,125.35
2022-10-14T08:12:40.008Z,105.05
2022-10-14T08:15:07.128Z,94.93
2022-10-14T08:17:33.942Z,82.90
2022-10-14T08:20:00.791Z,85.43
2022-10-14T08:22:27.535Z,80.25
2022-10-14T08:24:54.314Z,73.57
2022-10-14T08:27:21.514Z,75.45
2022-10-14T08:29:48.284Z,69.25
2022-10-14T08:32:15.411Z,67.43
2022-10-14T08:34:42.197Z,64.05
2022-10-14T08:37:11.627Z,62.25
2022-10-14T08:39:38.425Z,58.90
2022-10-14T08:42:26.760Z,52.95
2022-10-14T08:45:08.807Z,59.45
2022-10-14T08:50:26.784Z,61.60
2022-10-14T08:53:00.471Z,72.50
2022-10-14T08:55:30.735Z,68.20
2022-10-14T08:58:10.550Z,69.03
2022-10-14T09:00:41.200Z,63.88
2022-10-14T09:03:27.120Z,61.15
2022-10-14T09:06:04.194Z,64.25
2022-10-14T09:08:38.402Z,70.07
2022-10-14T09:11:15.443Z,68.80
2022-10-14T09:13:46.952Z,66.13
2022-10-14T09:16:21.451Z,65.18
2022-10-14T09:18:55.443Z,66.15
2022-10-14T09:21:40.676Z,62.28
2022-10-14T09:24:19.827Z,65.95
2022-10-14T09:29:27.111Z,64.07
2022-10-14T09:31:59.994Z,62.55
2022-10-14T09:34:33.979Z,58.88
2022-10-14T09:37:19.496Z,65.38
2022-10-14T09:39:47.699Z,58.78
2022-10-14T09:42:20.392Z,60.38
2022-10-14T09:45:13.195Z,58.55
2022-10-14T09:48:00.280Z,65.68
2022-10-14T09:50:51.888Z,62.50
2022-10-14T09:53:31.122Z,59.90
2022-10-14T09:56:03.896Z,62.30
2022-10-14T09:58:51.096Z,57.60
2022-10-14T10:01:29.842Z,58.05
2022-10-14T10:03:57.333Z,63.95
2022-10-14T10:06:26.510Z,55.97
2022-10-14T10:08:53.231Z,61.30
2022-10-14T10:11:37.832Z,57.78
2022-10-14T10:14:33.041Z,58.85
2022-10-14T10:17:27.687Z,57.55
2022-10-14T10:20:34.252Z,56.03
2022-10-14T10:23:27.646Z,58.80
2022-10-14T10:25:54.601Z,54.78
2022-10-14T10:28:31.705Z,56.13
2022-10-14T10:31:13.770Z,52.50
2022-10-14T10:34:07.709Z,52.38
2022-10-14T10:36:41.401Z,60.45
2022-10-14T10:39:35.687Z,56.78
2022-10-14T10:42:18.997Z,52.95
2022-10-14T10:44:53.264Z,53.65
2022-10-14T10:47:31.713Z,51.63
2022-10-14T10:50:30.230Z,46.83
2022-10-14T10:53:09.045Z,56.28
2022-10-14T10:55:57.449Z,57.67
2022-10-14T10:58:41.049Z,53.15
2022-10-14T11:01:28.244Z,53.03
2022-10-14T11:04:08.899Z,56.15
2022-10-14T11:07:13.440Z,63.13
2022-10-14T11:10:25.337Z,59.83
2022-10-14T11:13:22.186Z,53.67
2022-10-14T11:16:07.725Z,60.33
2022-10-14T11:19:01.280Z,55.67
2022-10-14T11:21:56.446Z,57.05
2022-10-14T11:24:26.256Z,54.33
2022-10-14T11:27:01.909Z,50.15
2022-10-14T11:30:10.911Z,57.50
2022-10-14T11:32:49.761Z,53.00
2022-10-14T11:35:45.895Z,57.45
2022-10-14T11:38:43.395Z,53.42
2022-10-14T11:41:17.946Z,54.45
2022-10-14T11:44:13.343Z,49.65
2022-10-14T11:46:45.980Z,54.40
2022-10-14T11:49:21.107Z,60.28
2022-10-14T11:51:55.721Z,53.03
2022-10-14T11:54:28.798Z,53.28
2022-10-14T11:57:04.906Z,55.95
2022-10-14T11:59:37.988Z,56.83
2022-10-14T12:02:28.303Z,55.20
2022-10-14T12:05:18.732Z,56.75
2022-10-14T12:08:04.635Z,55.22
2022-10-14T12:10:40.463Z,59.47
2022-10-14T12:13:15.115Z,62.35
2022-10-14T12:15:49.127Z,60.67
2022-10-14T12:18:16.288Z,68.22
2022-10-14T12:21:03.410Z,57.03
2022-10-14T12:23:37.006Z,59.80
2022-10-14T12:26:22.384Z,65.40
2022-10-14T12:28:52.838Z,63.30
2022-10-14T12:31:39.637Z,65.28
2022-10-14T12:34:15.394Z,57.65
2022-10-14T12:36:47.493Z,57.97
2022-10-14T12:39:17.690Z,60.65
2022-10-14T12:42:11.335Z,59.03
2022-10-14T12:44:48.906Z,63.10
2022-10-14T12:47:21.680Z,59.15
2022-10-14T12:49:52.673Z,62.15
2022-10-14T12:52:28.336Z,60.23
2022-10-14T12:54:55.848Z,63.33
2022-10-14T12:57:22.846Z,65.20
2022-10-14T12:59:52.507Z,58.60
2022-10-14T13:02:32.503Z,62.60
2022-10-14T13:05:08.710Z,63.35
2022-10-14T13:07:43.279Z,62.20
2022-10-14T13:10:27.636Z,66.18
2022-10-14T13:12:54.965Z,61.72
2022-10-14T13:15:50.256Z,67.93
2022-10-14T13:18:43.480Z,61.60
2022-10-14T13:21:26.523Z,59.50
2022-10-14T13:23:55.288Z,62.03
2022-10-14T13:26:41.043Z,62.15
2022-10-14T13:29:20.315Z,64.00
2022-10-14T13:31:52.983Z,66.85
2022-10-14T13:34:47.779Z,63.42
2022-10-14T13:37:38.829Z,60.58
2022-10-14T13:40:23.323Z,59.83
2022-10-14T13:43:06.824Z,64.25
2022-10-14T13:45:42.640Z,61.53
2022-10-14T13:48:21.535Z,76.63
2022-10-14T13:50:54.170Z,65.45
2022-10-14T13:53:25.983Z,71.40
2022-10-14T13:55:54.722Z,65.30
2022-10-14T13:58:24.040Z,67.35
2022-10-14T14:01:00.075Z,70.65
2022-10-14T14:03:36.130Z,66.22
2022-10-14T14:06:18.397Z,69.65
2022-10-14T14:08:58.337Z,70.50
2022-10-14T14:16:56.854Z,75.05
2022-10-14T14:19:28.219Z,70.22
2022-10-14T14:22:29.047Z,71.53
2022-10-14T14:25:43.052Z,75.63
2022-10-14T14:28:15.717Z,74.50
2022-10-14T14:30:54.586Z,74.60
2022-10-14T14:36:14.654Z,74.40
2022-10-14T14:38:57.902Z,72.50
2022-10-14T14:41:27.277Z,73.70
2022-10-14T14:44:26.837Z,70.97
2022-10-14T14:46:50.076Z,71.80
2022-10-14T14:49:22.801Z,73.47
2022-10-14T14:51:50.490Z,70.85
2022-10-14T14:54:20.024Z,71.68
2022-10-14T14:57:06.063Z,75.72
2022-10-14T14:59:37.270Z,77.32
2022-10-14T15:02:14.898Z,73.80
2022-10-14T15:04:42.146Z,81.70
2022-10-14T15:07:21.310Z,72.72
2022-10-14T15:09:53.576Z,71.90
2022-10-14T15:14:59.273Z,70.07
2022-10-14T15:17:27.119Z,81.13
2022-10-14T15:19:54.532Z,80.50
2022-10-14T15:22:44.717Z,77.57
2022-10-14T15:25:13.025Z,80.90
2022-10-14T15:27:47.518Z,80.32
2022-10-14T15:30:18.318Z,90.47
2022-10-14T15:32:45.544Z,86.25
2022-10-14T15:37:41.408Z,84.03
2022-10-14T15:40:17.879Z,84.05
2022-10-14T15:42:45.559Z,83.57
2022-10-14T15:45:12.501Z,84.40
2022-10-14T15:47:39.937Z,94.82
2022-10-14T15:50:26.073Z,90.88
2022-10-14T15:52:54.397Z,89.68
2022-10-14T15:55:24.616Z,86.75
2022-10-14T15:57:52.445Z,92.70
2022-10-14T16:00:24.109Z,86.95
2022-10-14T16:03:00.231Z,89.18
2022-10-14T16:05:29.120Z,88.50
2022-10-14T16:07:57.595Z,92.50
2022-10-14T16:10:25.912Z,88.85
2022-10-14T16:12:54.842Z,92.25
2022-10-14T16:15:36.090Z,98.65
2022-10-14T16:18:02.901Z,94.68
2022-10-14T16:20:30.874Z,99.88
2022-10-14T16:22:58.720Z,92.15
2022-10-14T16:25:34.477Z,91.95
2022-10-14T16:28:01.697Z,99.70
2022-10-14T16:30:28.517Z,98.40
2022-10-14T16:32:55.444Z,100.55
2022-10-14T16:35:22.314Z,102.55
2022-10-14T16:37:49.240Z,95.72
2022-10-14T16:40:16.069Z,110.25
2022-10-14T16:42:42.821Z,120.80
2022-10-14T16:45:10.005Z,101.07
2022-10-14T16:47:37.281Z,103.97
2022-10-14T16:50:04.975Z,107.72
2022-10-14T16:52:51.713Z,114.93
2022-10-14T16:55:19.132Z,105.72
2022-10-14T16:57:46.025Z,98.88
2022-10-14T17:00:14.098Z,98.43
2022-10-14T17:02:41.287Z,100.55
2022-10-14T17:05:09.024Z,103.90
2022-10-14T17:07:36.099Z,110.43
2022-10-14T17:10:02.921Z,118.43
2022-10-14T17:12:29.674Z,119.90
2022-10-14T17:14:56.959Z,108.28
2022-10-14T17:17:24.700Z,115.78
2022-10-14T17:19:53.692Z,99.15
2022-10-14T17:22:21.446Z,96.10
2022-10-14T17:24:49.463Z,119.63
2022-10-14T17:27:19.414Z,118.13
2022-10-14T17:29:46.513Z,102.20
2022-10-14T17:32:13.347Z,101.50
2022-10-14T17:34:40.113Z,107.43
2022-10-14T17:39:35.031Z,107.05
2022-10-14T17:42:01.851Z,111.53
2022-10-14T17:44:28.969Z,106.75
2022-10-14T17:46:56.957Z,106.93
2022-10-14T17:49:23.678Z,106.93
2022-10-14T17:51:50.451Z,110.32
2022-10-14T17:54:17.179Z,112.35
2022-10-14T17:56:43.944Z,117.88
2022-10-14T17:59:14.140Z,124.22
2022-10-14T18:02:01.414Z,115.43
2022-10-14T18:04:27.890Z,114.80
2022-10-14T18:06:54.640Z,116.55
2022-10-14T18:09:21.501Z,111.07
2022-10-14T18:14:38.363Z,112.82
2022-10-14T18:17:05.340Z,111.03
2022-10-14T18:19:32.719Z,113.72
2022-10-14T18:21:59.555Z,116.35
2022-10-14T18:24:26.451Z,115.35
2022-10-14T18:26:53.742Z,105.30
2022-10-14T18:29:20.933Z,100.47
2022-10-14T18:31:49.890Z,113.22
2022-10-14T18:34:16.848Z,122.68
2022-10-14T18:36:43.684Z,105.13
2022-10-14T18:39:11.732Z,106.35
2022-10-14T18:41:38.630Z,113.38
2022-10-14T18:44:06.474Z,114.47
2022-10-14T18:46:36.146Z,107.35
2022-10-14T18:49:05.036Z,108.88
2022-10-14T18:51:35.163Z,112.90
2022-10-14T18:54:05.567Z,111.65
2022-10-14T18:56:34.707Z,112.18
2022-10-14T18:59:05.627Z,113.50
2022-10-14T19:01:34.660Z,111.10
2022-10-14T19:04:02.435Z,121.63
2022-10-14T19:06:29.285Z,116.88
2022-10-14T19:09:02.242Z,110.85
2022-10-14T19:11:30.475Z,110.78
2022-10-14T19:14:17.369Z,118.75
2022-10-14T19:16:47.247Z,116.70
2022-10-14T19:19:18.220Z,139.93
2022-10-14T19:21:47.633Z,127.20
2022-10-14T19:24:15.167Z,126.15
2022-10-14T19:26:44.646Z,120.63
2022-10-14T19:29:13.342Z,120.32
2022-10-14T19:31:41.543Z,118.20
2022-10-14T19:34:12.084Z,120.75
2022-10-14T19:36:40.064Z,117.18
2022-10-14T19:39:09.445Z,120.70
2022-10-14T19:41:43.415Z,124.30
2022-10-14T19:44:11.782Z,127.22
2022-10-14T19:46:39.028Z,122.05
2022-10-14T19:49:06.439Z,122.82
2022-10-14T19:51:34.679Z,127.00
2022-10-14T19:54:01.845Z,124.65
2022-10-14T19:56:29.356Z,123.90
2022-10-14T19:58:58.956Z,122.20
2022-10-14T20:01:31.314Z,124.78
2022-10-14T20:04:00.834Z,134.50
2022-10-14T20:06:31.596Z,134.13
2022-10-14T20:08:58.376Z,129.48
2022-10-14T20:11:25.209Z,119.55
2022-10-14T20:13:52.114Z,112.35
2022-10-14T20:16:18.873Z,117.38
2022-10-14T20:18:45.806Z,125.68
2022-10-14T20:21:14.784Z,110.25
2022-10-14T20:23:42.017Z,111.50
2022-10-14T20:26:15.783Z,118.28
2022-10-14T20:28:42.898Z,103.75
2022-10-14T20:31:13.038Z,111.45
2022-10-14T20:33:39.789Z,113.80
2022-10-14T20:36:18.428Z,111.95
2022-10-14T20:38:45.779Z,119.65
2022-10-14T20:41:20.004Z,109.20
2022-10-14T20:43:47.403Z,119.70
2022-10-14T20:46:14.701Z,110.22
2022-10-14T20:48:41.603Z,107.80
2022-10-14T20:51:10.755Z,110.75
2022-10-14T20:53:38.082Z,111.10
2022-10-14T20:56:11.049Z,121.10
2022-10-14T20:58:38.250Z,108.15
2022-10-14T21:01:07.146Z,112.53
2022-10-14T21:03:34.007Z,115.65
2022-10-14T21:06:06.897Z,121.10
2022-10-14T21:08:34.620Z,131.35
2022-10-14T21:11:03.268Z,129.43
2022-10-14T21:13:32.061Z,139.43
2022-10-14T21:15:58.985Z,131.25
2022-10-14T21:18:25.830Z,133.55
2022-10-14T21:23:19.589Z,138.73
2022-10-14T21:25:54.567Z,151.77
2022-10-14T21:28:21.425Z,124.03
2022-10-14T21:30:48.245Z,118.95
2022-10-14T21:33:14.975Z,125.85
2022-10-14T21:35:41.723Z,128.20
2022-10-14T21:38:08.529Z,130.68
2022-10-14T21:40:35.309Z,131.02
2022-10-14T21:43:02.160Z,115.97
2022-10-14T21:45:28.916Z,118.30
2022-10-14T21:47:55.814Z,117.80
2022-10-14T21:50:22.628Z,110.38
2022-10-14T21:52:49.482Z,114.75
2022-10-14T21:55:16.340Z,122.78
2022-10-14T21:57:43.479Z,134.80
2022-10-14T22:00:11.427Z,129.93
2022-10-14T22:02:38.189Z,118.43
2022-10-14T22:05:05.255Z,112.55
2022-10-14T22:07:32.194Z,115.50
2022-10-14T22:09:59.159Z,112.38
2022-10-14T22:12:27.612Z,116.43
2022-10-14T22:14:54.412Z,113.57
2022-10-14T22:17:21.526Z,109.72
2022-10-14T22:19:48.554Z,112.18
2022-10-14T22:22:15.345Z,99.38
2022-10-14T22:24:43.324Z,110.53
2022-10-14T22:27:10.189Z,107.90
2022-10-14T22:29:37.585Z,118.00
2022-10-14T22:32:04.719Z,111.25
2022-10-14T22:34:31.524Z,109.55
2022-10-14T22:36:59.566Z,114.75
2022-10-14T22:39:27.266Z,121.82
2022-10-14T22:41:54.095Z,132.77
2022-10-14T22:44:20.852Z,121.22
2022-10-14T22:46:47.615Z,110.55
2022-10-14T22:49:14.403Z,117.75
2022-10-14T22:51:41.369Z,115.20
2022-10-14T22:54:08.799Z,125.85
2022-10-14T22:56:35.765Z,122.28
2022-10-14T22:59:09.056Z,136.35
2022-10-14T23:01:36.063Z,121.28
2022-10-14T23:04:03.463Z,122.45
2022-10-14T23:06:31.659Z,114.93
2022-10-14T23:09:02.155Z,117.97
2022-10-14T23:11:30.998Z,116.43
2022-10-14T23:14:00.218Z,106.43
2022-10-14T23:16:29.824Z,114.68
2022-10-14T23:18:58.808Z,103.97
2022-10-14T23:21:29.189Z,118.20
2022-10-14T23:23:57.880Z,123.38
2022-10-14T23:26:27.403Z,130.07
2022-10-14T23:28:57.579Z,136.48
2022-10-14T23:31:27.536Z,130.07
2022-10-14T23:33:54.540Z,125.50
2022-10-14T23:36:22.555Z,116.22
2022-10-14T23:38:50.115Z,128.80
2022-10-14T23:41:16.991Z,125.13
2022-10-14T23:43:43.803Z,125.28
2022-10-14T23:46:11.151Z,111.50
2022-10-14T23:48:38.073Z,115.20
2022-10-14T23:51:05.264Z,112.03
2022-10-14T23:53:32.322Z,108.97
2022-10-14T23:55:59.147Z,104.10
2022-10-14T23:58:28.516Z,109.00
